createdAt,value
2019-01-08T00:02:00.770Z,4.87
2019-01-08T00:04:28.760Z,4.73
2019-01-08T00:06:59.939Z,4.70
2019-01-08T00:09:28.945Z,4.87
2019-01-08T00:11:57.526Z,4.10
2019-01-08T00:14:25.618Z,3.77
2019-01-08T00:16:53.755Z,3.87
2019-01-08T00:19:21.753Z,3.37
2019-01-08T00:21:50.252Z,4.07
2019-01-08T00:24:18.363Z,3.97
2019-01-08T00:26:46.334Z,3.93
2019-01-08T00:29:14.254Z,3.50
2019-01-08T00:31:42.245Z,3.50
2019-01-08T00:34:11.381Z,4.03
2019-01-08T00:36:40.241Z,4.70
2019-01-08T00:39:08.190Z,4.20
2019-01-08T00:41:36.301Z,4.87
2019-01-08T00:44:04.301Z,4.13
2019-01-08T00:46:32.803Z,3.90
2019-01-08T00:49:00.832Z,4.03
2019-01-08T00:51:29.177Z,4.77
2019-01-08T00:53:57.418Z,4.80
2019-01-08T00:56:26.411Z,5.43
2019-01-08T00:58:54.434Z,4.37
2019-01-08T01:01:22.412Z,4.67
2019-01-08T01:03:50.748Z,5.53
2019-01-08T01:06:20.370Z,4.23
2019-01-08T01:08:48.320Z,3.87
2019-01-08T01:11:17.181Z,3.83
2019-01-08T01:13:45.709Z,4.50
2019-01-08T01:16:13.620Z,4.77
2019-01-08T01:18:41.910Z,6.03
2019-01-08T01:21:10.049Z,5.73
2019-01-08T01:23:38.437Z,4.07
2019-01-08T01:26:09.399Z,5.50
2019-01-08T01:28:40.630Z,4.27
2019-01-08T01:31:08.527Z,4.10
2019-01-08T01:33:36.935Z,4.17
2019-01-08T01:36:04.876Z,4.10
2019-01-08T01:38:33.868Z,4.73
2019-01-08T01:41:02.463Z,4.40
2019-01-08T01:43:30.894Z,3.87
2019-01-08T01:45:58.783Z,5.13
2019-01-08T01:48:27.070Z,5.20
2019-01-08T01:50:56.025Z,3.73
2019-01-08T01:53:24.371Z,4.20
2019-01-08T01:55:52.372Z,3.73
2019-01-08T01:58:23.316Z,4.33
2019-01-08T02:00:51.357Z,3.57
2019-01-08T02:03:21.013Z,4.07
2019-01-08T02:05:49.007Z,3.87
2019-01-08T02:08:17.313Z,4.30
2019-01-08T02:10:46.680Z,4.00
2019-01-08T02:13:15.339Z,4.77
2019-01-08T02:15:43.446Z,5.03
2019-01-08T02:18:11.471Z,4.63
2019-01-08T02:20:39.986Z,4.47
2019-01-08T02:23:08.642Z,3.53
2019-01-08T02:25:36.845Z,4.53
2019-01-08T02:28:04.954Z,4.67
2019-01-08T02:30:33.293Z,3.47
2019-01-08T02:33:01.301Z,6.40
2019-01-08T02:35:29.288Z,4.07
2019-01-08T02:37:57.275Z,4.80
2019-01-08T02:40:25.674Z,4.53
2019-01-08T02:42:54.673Z,4.17
2019-01-08T02:45:22.736Z,4.67
2019-01-08T02:47:50.649Z,4.40
2019-01-08T02:50:18.682Z,4.53
2019-01-08T02:52:47.622Z,3.90
2019-01-08T02:55:16.747Z,5.90
2019-01-08T02:57:44.667Z,3.97
2019-01-08T03:00:13.058Z,5.07
2019-01-08T03:02:42.076Z,5.27
2019-01-08T03:05:10.084Z,4.57
2019-01-08T03:07:38.937Z,5.13
2019-01-08T03:10:07.586Z,3.90
2019-01-08T03:12:35.815Z,4.23
2019-01-08T03:15:06.351Z,4.40
2019-01-08T03:17:38.050Z,4.23
2019-01-08T03:20:06.391Z,4.47
2019-01-08T03:22:34.411Z,3.93
2019-01-08T03:25:05.793Z,4.73
2019-01-08T03:27:34.082Z,4.53
2019-01-08T03:30:05.659Z,3.97
2019-01-08T03:32:34.688Z,4.03
2019-01-08T03:35:02.817Z,5.30
2019-01-08T03:37:31.046Z,5.77
2019-01-08T03:39:59.817Z,5.90
2019-01-08T03:42:28.606Z,4.40
2019-01-08T03:44:56.530Z,4.60
2019-01-08T03:47:24.652Z,5.13
2019-01-08T03:49:52.608Z,4.90
2019-01-08T03:52:22.149Z,4.03
2019-01-08T03:54:52.620Z,5.87
2019-01-08T03:57:21.334Z,5.63
2019-01-08T03:59:49.325Z,4.33
2019-01-08T04:02:17.756Z,4.43
2019-01-08T04:04:55.370Z,4.47
2019-01-08T04:07:23.588Z,5.47
2019-01-08T04:09:52.138Z,5.90
2019-01-08T04:12:20.112Z,4.80
2019-01-08T04:14:48.352Z,4.70
2019-01-08T04:17:16.499Z,3.97
2019-01-08T04:19:44.988Z,4.90
2019-01-08T04:22:13.346Z,5.37
2019-01-08T04:24:41.553Z,4.80
2019-01-08T04:27:09.928Z,5.10
2019-01-08T04:29:50.197Z,4.67
2019-01-08T04:32:11.556Z,3.97
2019-01-08T04:34:39.952Z,4.50
2019-01-08T04:37:08.037Z,4.50
2019-01-08T04:39:36.040Z,4.83
2019-01-08T04:42:04.233Z,4.87
2019-01-08T04:44:32.702Z,5.60
2019-01-08T04:47:01.840Z,4.27
2019-01-08T04:49:29.923Z,4.50
2019-01-08T04:51:57.844Z,4.60
2019-01-08T04:54:26.855Z,7.23
2019-01-08T04:56:54.824Z,6.90
2019-01-08T04:59:24.675Z,4.63
2019-01-08T05:01:52.927Z,6.20
2019-01-08T05:04:21.754Z,4.83
2019-01-08T05:06:50.142Z,6.13
2019-01-08T05:09:18.419Z,4.40
2019-01-08T05:11:46.884Z,4.80
2019-01-08T05:14:14.909Z,4.23
2019-01-08T05:16:43.216Z,5.63
2019-01-08T05:19:12.365Z,4.47
2019-01-08T05:21:41.935Z,4.20
2019-01-08T05:24:10.668Z,3.90
2019-01-08T05:26:40.020Z,4.47
2019-01-08T05:29:10.924Z,3.50
2019-01-08T05:31:38.888Z,4.80
2019-01-08T05:34:06.885Z,2.40
2019-01-08T05:36:35.474Z,2.80
2019-01-08T05:39:04.621Z,4.40
2019-01-08T05:41:32.681Z,3.40
2019-01-08T05:44:01.784Z,4.10
2019-01-08T05:46:30.281Z,4.23
2019-01-08T05:48:58.287Z,3.90
2019-01-08T05:51:27.724Z,3.03
2019-01-08T05:53:59.872Z,3.07
2019-01-08T05:56:28.232Z,3.93
2019-01-08T05:58:56.226Z,2.53
2019-01-08T06:01:24.158Z,2.60
2019-01-08T06:03:52.611Z,2.53
2019-01-08T06:06:20.989Z,3.33
2019-01-08T06:08:48.991Z,3.27
2019-01-08T06:11:16.993Z,3.40
2019-01-08T06:13:45.510Z,2.90
2019-01-08T06:16:13.535Z,3.20
2019-01-08T06:18:41.478Z,3.40
2019-01-08T06:21:10.713Z,3.17
2019-01-08T06:23:39.555Z,3.20
2019-01-08T06:26:07.547Z,2.87
2019-01-08T06:28:36.232Z,3.60
2019-01-08T06:31:07.236Z,3.60
2019-01-08T06:33:35.243Z,4.30
2019-01-08T06:36:03.333Z,4.33
2019-01-08T06:38:31.704Z,4.87
2019-01-08T06:40:59.649Z,3.50
2019-01-08T06:43:31.139Z,3.20
2019-01-08T06:45:59.183Z,3.27
2019-01-08T06:48:27.955Z,3.67
2019-01-08T06:51:02.033Z,3.40
2019-01-08T06:53:30.816Z,3.37
2019-01-08T06:55:58.891Z,4.30
2019-01-08T06:58:28.022Z,3.23
2019-01-08T07:00:56.021Z,4.40
2019-01-08T07:03:24.022Z,2.80
2019-01-08T07:05:55.541Z,3.37
2019-01-08T07:08:23.490Z,4.47
2019-01-08T07:10:51.464Z,4.57
2019-01-08T07:13:20.926Z,4.40
2019-01-08T07:15:49.599Z,4.83
2019-01-08T07:18:17.658Z,3.87
2019-01-08T07:20:45.813Z,3.37
2019-01-08T07:23:13.802Z,3.07
2019-01-08T07:25:42.601Z,3.30
2019-01-08T07:28:11.191Z,4.07
2019-01-08T07:30:41.741Z,3.33
2019-01-08T07:33:09.151Z,5.27
2019-01-08T07:35:37.546Z,4.07
2019-01-08T07:38:05.673Z,5.40
2019-01-08T07:40:35.373Z,3.37
2019-01-08T07:43:03.778Z,4.10
2019-01-08T07:45:32.244Z,3.20
2019-01-08T07:48:00.360Z,3.47
2019-01-08T07:50:31.264Z,4.07
2019-01-08T07:53:00.139Z,3.30
2019-01-08T07:55:28.198Z,3.93
2019-01-08T07:57:56.483Z,4.27
2019-01-08T08:00:25.463Z,4.43
2019-01-08T08:02:53.758Z,4.33
2019-01-08T08:05:30.988Z,3.13
2019-01-08T08:07:59.609Z,4.90
2019-01-08T08:10:27.648Z,5.07
2019-01-08T08:12:55.827Z,3.50
2019-01-08T08:15:24.021Z,5.00
2019-01-08T08:17:53.579Z,5.03
2019-01-08T08:20:24.910Z,3.50
2019-01-08T08:22:55.920Z,3.87
2019-01-08T08:25:24.516Z,4.30
2019-01-08T08:27:52.526Z,4.07
2019-01-08T08:30:20.512Z,3.70
2019-01-08T08:32:49.165Z,3.93
2019-01-08T08:35:20.852Z,4.83
2019-01-08T08:37:49.268Z,4.53
2019-01-08T08:40:17.386Z,4.67
2019-01-08T08:42:46.127Z,3.50
2019-01-08T08:45:14.399Z,4.03
2019-01-08T08:47:42.929Z,3.27
2019-01-08T08:50:11.843Z,3.80
2019-01-08T08:52:40.156Z,4.30
2019-01-08T08:55:08.154Z,5.33
2019-01-08T08:57:36.864Z,3.13
2019-01-08T09:00:07.112Z,4.90
2019-01-08T09:02:35.293Z,4.90
2019-01-08T09:05:03.892Z,5.50
2019-01-08T09:07:32.022Z,4.23
2019-01-08T09:09:59.980Z,4.23
2019-01-08T09:12:28.328Z,3.50
2019-01-08T09:14:57.583Z,3.90
2019-01-08T09:17:25.663Z,3.93
2019-01-08T09:19:53.873Z,4.77
2019-01-08T09:22:22.400Z,4.60
2019-01-08T09:24:50.881Z,4.47
2019-01-08T09:27:19.331Z,4.03
2019-01-08T09:29:49.103Z,5.07
2019-01-08T09:32:19.384Z,3.90
2019-01-08T09:34:47.329Z,4.17
2019-01-08T09:37:15.512Z,4.13
2019-01-08T09:39:44.086Z,4.10
2019-01-08T09:42:12.563Z,3.73
2019-01-08T09:44:40.562Z,6.37
2019-01-08T09:47:08.535Z,3.10
2019-01-08T09:49:36.749Z,3.53
2019-01-08T09:52:05.378Z,6.13
2019-01-08T09:54:34.256Z,4.90
2019-01-08T09:57:02.363Z,7.07
2019-01-08T09:59:32.436Z,5.77
2019-01-08T10:02:01.846Z,6.60
2019-01-08T10:04:30.544Z,7.27
2019-01-08T10:06:58.782Z,7.17
2019-01-08T10:09:26.851Z,9.20
2019-01-08T10:11:55.399Z,8.73
2019-01-08T10:14:23.533Z,9.83
2019-01-08T10:16:51.527Z,9.73
2019-01-08T10:19:19.506Z,5.37
2019-01-08T10:21:47.755Z,6.60
2019-01-08T10:24:15.822Z,7.47
2019-01-08T10:26:43.777Z,6.43
2019-01-08T10:29:12.975Z,6.23
2019-01-08T10:31:41.426Z,7.60
2019-01-08T10:34:13.853Z,7.17
2019-01-08T10:36:41.819Z,6.43
2019-01-08T10:39:12.611Z,5.37
2019-01-08T10:41:44.059Z,5.93
2019-01-08T10:44:12.280Z,4.97
2019-01-08T10:46:40.510Z,6.13
2019-01-08T10:49:08.533Z,6.50
2019-01-08T10:51:37.120Z,6.50
2019-01-08T10:54:06.293Z,4.93
2019-01-08T10:56:37.285Z,6.53
2019-01-08T10:59:07.677Z,5.97
2019-01-08T11:01:40.776Z,6.97
2019-01-08T11:04:06.630Z,5.80
2019-01-08T11:06:34.794Z,5.87
2019-01-08T11:09:04.054Z,6.57
2019-01-08T11:11:34.399Z,5.90
2019-01-08T11:14:02.872Z,6.23
2019-01-08T11:16:30.859Z,7.93
2019-01-08T11:18:58.875Z,6.30
2019-01-08T11:21:27.130Z,5.40
2019-01-08T11:23:55.259Z,6.30
2019-01-08T11:26:23.701Z,5.03
2019-01-08T11:28:53.413Z,5.37
2019-01-08T11:31:23.423Z,4.87
2019-01-08T11:33:51.643Z,4.10
2019-01-08T11:36:19.606Z,4.83
2019-01-08T11:38:48.115Z,3.87
2019-01-08T11:41:17.974Z,3.90
2019-01-08T11:43:46.068Z,4.40
2019-01-08T11:46:17.748Z,3.33
2019-01-08T11:48:46.478Z,4.17
2019-01-08T11:51:17.023Z,4.50
2019-01-08T11:53:46.153Z,4.80
2019-01-08T11:56:20.057Z,4.03
2019-01-08T11:58:48.972Z,5.10
2019-01-08T12:01:19.330Z,4.57
2019-01-08T12:03:51.482Z,3.90
2019-01-08T12:06:20.630Z,4.97
2019-01-08T12:08:52.270Z,4.77
2019-01-08T12:11:21.432Z,7.00
2019-01-08T12:13:51.769Z,6.10
2019-01-08T12:16:22.217Z,5.53
2019-01-08T12:18:51.269Z,6.13
2019-01-08T12:21:20.270Z,5.03
2019-01-08T12:23:49.316Z,5.23
2019-01-08T12:26:18.289Z,4.80
2019-01-08T12:28:47.781Z,5.47
2019-01-08T12:31:17.560Z,5.07
2019-01-08T12:33:47.147Z,6.47
2019-01-08T12:36:16.112Z,3.93
2019-01-08T12:38:46.479Z,4.67
2019-01-08T12:41:15.509Z,4.67
2019-01-08T12:43:44.618Z,4.90
2019-01-08T12:46:13.606Z,5.00
2019-01-08T12:48:42.708Z,4.80
2019-01-08T12:51:13.990Z,5.13
2019-01-08T12:53:48.175Z,4.40
2019-01-08T12:56:17.611Z,4.57
2019-01-08T12:58:46.557Z,4.53
2019-01-08T13:01:16.054Z,5.83
2019-01-08T13:03:45.069Z,4.67
2019-01-08T13:06:14.141Z,4.30
2019-01-08T13:08:51.396Z,6.30
2019-01-08T13:11:20.796Z,3.40
2019-01-08T13:13:49.933Z,4.17
2019-01-08T13:16:19.109Z,4.00
2019-01-08T13:18:48.451Z,2.93
2019-01-08T13:21:17.764Z,2.80
2019-01-08T13:23:47.510Z,3.43
2019-01-08T13:26:16.554Z,3.83
2019-01-08T13:28:46.375Z,3.47
2019-01-08T13:31:16.950Z,3.07
2019-01-08T13:33:46.221Z,3.13
2019-01-08T13:36:15.827Z,3.70
2019-01-08T13:38:44.885Z,4.47
2019-01-08T13:41:14.080Z,4.00
2019-01-08T13:43:43.550Z,2.97
2019-01-08T13:46:14.168Z,3.03
2019-01-08T13:48:45.861Z,2.20
2019-01-08T13:51:17.429Z,2.73
2019-01-08T13:53:46.427Z,2.87
2019-01-08T13:56:15.645Z,3.03
2019-01-08T13:58:44.633Z,2.60
2019-01-08T14:01:13.649Z,4.07
2019-01-08T14:03:42.694Z,4.03
2019-01-08T14:06:12.512Z,2.43
2019-01-08T14:08:41.630Z,4.00
2019-01-08T14:11:10.686Z,3.10
2019-01-08T14:13:39.945Z,3.00
2019-01-08T14:16:09.362Z,3.40
2019-01-08T14:18:39.492Z,4.10
2019-01-08T14:21:12.363Z,3.57
2019-01-08T14:23:41.777Z,3.20
2019-01-08T14:26:11.746Z,3.60
2019-01-08T14:28:41.714Z,4.30
2019-01-08T14:31:12.183Z,4.27
2019-01-08T14:33:42.240Z,3.87
2019-01-08T14:36:11.389Z,3.37
2019-01-08T14:38:41.290Z,3.77
2019-01-08T14:41:10.886Z,4.40
2019-01-08T14:43:40.104Z,6.83
2019-01-08T14:46:09.423Z,4.87
2019-01-08T14:48:39.272Z,3.97
2019-01-08T14:51:08.345Z,4.27
2019-01-08T14:53:39.015Z,4.47
2019-01-08T14:56:10.046Z,5.57
2019-01-08T14:58:41.864Z,4.20
2019-01-08T15:01:10.812Z,3.30
2019-01-08T15:03:43.080Z,3.80
2019-01-08T15:06:12.078Z,4.53
2019-01-08T15:08:42.119Z,3.43
2019-01-08T15:11:11.299Z,3.30
2019-01-08T15:13:42.060Z,4.37
2019-01-08T15:16:11.017Z,3.77
2019-01-08T15:18:49.251Z,4.70
2019-01-08T15:21:22.123Z,5.33
2019-01-08T15:23:52.334Z,4.23
2019-01-08T15:26:21.332Z,3.80
2019-01-08T15:28:50.988Z,4.70
2019-01-08T15:31:19.954Z,6.43
2019-01-08T15:33:49.466Z,3.97
2019-01-08T15:36:18.462Z,4.13
2019-01-08T15:38:48.188Z,4.00
2019-01-08T15:41:18.548Z,4.10
2019-01-08T15:43:47.967Z,4.93
2019-01-08T15:46:17.176Z,4.40
2019-01-08T15:48:47.189Z,4.53
2019-01-08T15:51:16.484Z,3.80
2019-01-08T15:53:46.790Z,4.43
2019-01-08T15:56:15.992Z,3.63
2019-01-08T15:58:45.497Z,3.53
2019-01-08T16:01:14.472Z,4.23
2019-01-08T16:03:44.097Z,4.13
2019-01-08T16:06:13.723Z,4.90
2019-01-08T16:08:43.094Z,4.47
2019-01-08T16:11:12.136Z,6.53
2019-01-08T16:13:41.139Z,6.70
2019-01-08T16:16:10.202Z,7.57
2019-01-08T16:18:39.911Z,5.30
2019-01-08T16:21:10.477Z,5.57
2019-01-08T16:23:39.957Z,5.00
2019-01-08T16:26:10.164Z,4.20
2019-01-08T16:28:39.920Z,4.20
2019-01-08T16:31:10.938Z,4.60
2019-01-08T16:33:40.873Z,4.37
2019-01-08T16:36:10.092Z,3.50
2019-01-08T16:38:42.985Z,2.87
2019-01-08T16:41:13.249Z,2.63
2019-01-08T16:43:46.292Z,3.00
2019-01-08T16:46:15.479Z,3.63
2019-01-08T16:48:44.480Z,3.73
2019-01-08T16:51:13.863Z,3.73
2019-01-08T16:53:44.439Z,3.63
2019-01-08T16:56:13.409Z,3.77
2019-01-08T16:58:42.670Z,4.00
2019-01-08T17:01:11.854Z,4.30
2019-01-08T17:03:42.480Z,3.87
2019-01-08T17:06:14.204Z,4.10
2019-01-08T17:08:44.304Z,3.67
2019-01-08T17:11:18.444Z,4.60
2019-01-08T17:13:47.820Z,3.37
2019-01-08T17:16:18.251Z,3.27
2019-01-08T17:18:47.904Z,3.23
2019-01-08T17:21:22.027Z,4.27
2019-01-08T17:23:52.739Z,4.10
2019-01-08T17:26:23.166Z,4.57
2019-01-08T17:28:53.515Z,3.97
2019-01-08T17:31:27.601Z,4.63
2019-01-08T17:34:00.905Z,4.97
2019-01-08T17:36:31.875Z,4.00
2019-01-08T17:39:05.451Z,4.23
2019-01-08T17:41:37.956Z,4.07
2019-01-08T17:44:08.836Z,4.17
2019-01-08T17:46:42.221Z,4.07
2019-01-08T17:49:13.600Z,4.67
2019-01-08T17:51:47.899Z,3.27
2019-01-08T17:54:17.879Z,3.87
2019-01-08T17:56:48.929Z,3.90
2019-01-08T17:59:22.995Z,3.87
2019-01-08T18:02:04.241Z,4.43
2019-01-08T18:04:33.546Z,4.50
2019-01-08T18:07:03.985Z,3.77
2019-01-08T18:09:35.440Z,3.37
2019-01-08T18:12:09.177Z,4.90
2019-01-08T18:14:39.337Z,4.17
2019-01-08T18:17:09.042Z,3.47
2019-01-08T18:19:44.024Z,4.67
2019-01-08T18:22:13.921Z,4.10
2019-01-08T18:24:44.807Z,6.13
2019-01-08T18:27:19.510Z,4.63
2019-01-08T18:29:50.709Z,4.60
2019-01-08T18:32:21.771Z,5.13
2019-01-08T18:34:51.584Z,5.37
2019-01-08T18:37:22.673Z,4.47
2019-01-08T18:39:51.916Z,4.33
2019-01-08T18:42:21.928Z,4.17
2019-01-08T18:44:51.487Z,5.23
2019-01-08T18:47:20.949Z,4.80
2019-01-08T18:49:52.762Z,4.50
2019-01-08T18:52:23.990Z,4.27
2019-01-08T18:54:53.356Z,4.17
2019-01-08T18:57:27.633Z,3.90
2019-01-08T19:00:01.181Z,4.43
2019-01-08T19:02:32.667Z,4.10
2019-01-08T19:05:01.879Z,4.00
2019-01-08T19:07:37.954Z,3.63
2019-01-08T19:10:11.008Z,5.23
2019-01-08T19:12:43.230Z,3.90
2019-01-08T19:15:15.842Z,4.97
2019-01-08T19:17:46.268Z,4.00
2019-01-08T19:20:15.887Z,5.37
2019-01-08T19:22:45.372Z,5.73
2019-01-08T19:25:15.287Z,4.57
2019-01-08T19:27:47.187Z,3.73
2019-01-08T19:30:22.055Z,4.43
2019-01-08T19:32:51.143Z,3.63
2019-01-08T19:35:20.481Z,4.43
2019-01-08T19:37:54.059Z,3.83
2019-01-08T19:40:27.597Z,5.23
2019-01-08T19:43:00.953Z,4.10
2019-01-08T19:45:32.709Z,4.77
2019-01-08T19:48:01.962Z,3.83
2019-01-08T19:50:32.889Z,5.97
2019-01-08T19:53:02.044Z,3.47
2019-01-08T19:55:35.763Z,4.17
2019-01-08T19:58:08.824Z,3.97
2019-01-08T20:00:38.428Z,3.80
2019-01-08T20:03:10.164Z,4.43
2019-01-08T20:05:40.648Z,5.83
2019-01-08T20:08:55.010Z,5.63
2019-01-08T20:11:38.741Z,4.70
2019-01-08T20:14:30.892Z,4.43
2019-01-08T20:17:07.703Z,3.77
2019-01-08T20:19:37.883Z,3.87
2019-01-08T20:22:10.827Z,4.47
2019-01-08T20:24:43.510Z,4.17
2019-01-08T20:27:22.504Z,4.30
2019-01-08T20:29:51.985Z,4.03
2019-01-08T20:32:25.249Z,3.43
2019-01-08T20:35:15.439Z,5.20
2019-01-08T20:37:47.221Z,4.23
2019-01-08T20:40:16.749Z,5.47
2019-01-08T20:42:46.676Z,5.43
2019-01-08T20:45:19.872Z,5.00
2019-01-08T20:48:15.307Z,4.97
2019-01-08T20:50:48.322Z,5.00
2019-01-08T20:53:23.856Z,4.77
2019-01-08T20:55:59.942Z,5.73
2019-01-08T20:58:30.065Z,4.53
2019-01-08T21:01:00.929Z,5.73
2019-01-08T21:03:30.146Z,4.97
2019-01-08T21:06:04.750Z,4.30
2019-01-08T21:08:35.759Z,3.90
2019-01-08T21:11:06.271Z,6.20
2019-01-08T21:13:36.518Z,5.00
2019-01-08T21:16:07.394Z,4.47
2019-01-08T21:18:50.191Z,5.83
2019-01-08T21:21:19.935Z,5.30
2019-01-08T21:23:50.088Z,4.50
2019-01-08T21:29:32.929Z,4.80
2019-01-08T21:32:21.237Z,3.33
2019-01-08T21:35:08.538Z,4.63
2019-01-08T21:37:55.593Z,4.10
2019-01-08T21:40:43.840Z,3.30
2019-01-08T21:43:30.675Z,2.97
2019-01-08T21:46:19.364Z,4.03
2019-01-08T21:49:11.775Z,3.93
2019-01-08T21:52:05.612Z,5.23
2019-01-08T21:57:41.913Z,3.80
2019-01-08T22:03:06.782Z,4.40
2019-01-08T22:05:34.806Z,4.60
2019-01-08T22:08:21.001Z,4.60
2019-01-08T22:10:49.054Z,5.40
2019-01-08T22:13:17.327Z,4.40
2019-01-08T22:15:45.721Z,3.77
2019-01-08T22:18:13.534Z,3.83
2019-01-08T22:20:41.310Z,3.30
2019-01-08T22:23:09.520Z,4.03
2019-01-08T22:25:37.337Z,3.70
2019-01-08T22:28:05.214Z,3.33
2019-01-08T22:30:33.096Z,3.53
2019-01-08T22:33:04.158Z,3.63
2019-01-08T22:35:32.691Z,5.17
2019-01-08T22:38:00.496Z,3.83
2019-01-08T22:40:28.337Z,3.53
2019-01-08T22:42:56.194Z,4.13
2019-01-08T22:45:23.971Z,2.93
2019-01-08T22:47:55.178Z,2.97
2019-01-08T22:50:23.073Z,3.50
2019-01-08T22:52:51.943Z,3.13
2019-01-08T22:55:19.692Z,2.40
2019-01-08T22:57:49.082Z,1.77
2019-01-08T23:00:37.068Z,1.50
2019-01-08T23:03:05.200Z,2.20
2019-01-08T23:05:33.678Z,2.83
2019-01-08T23:08:01.535Z,2.50
2019-01-08T23:10:31.143Z,1.60
2019-01-08T23:13:00.239Z,3.03
2019-01-08T23:15:28.716Z,1.13
2019-01-08T23:17:57.299Z,0.97
2019-01-08T23:20:25.185Z,1.23
2019-01-08T23:22:53.444Z,0.83
2019-01-08T23:25:21.648Z,1.10
2019-01-08T23:27:49.434Z,1.20
2019-01-08T23:30:17.367Z,1.20
2019-01-08T23:32:45.155Z,0.90
2019-01-08T23:35:19.519Z,1.70
2019-01-08T23:37:44.274Z,1.90
2019-01-08T23:40:12.067Z,2.00
2019-01-08T23:42:39.918Z,2.17
2019-01-08T23:45:08.971Z,2.47
2019-01-08T23:47:36.984Z,2.40
2019-01-08T23:50:05.024Z,2.10
2019-01-08T23:52:48.721Z,2.07
2019-01-08T23:55:20.221Z,2.00
2019-01-08T23:57:50.733Z,2.10
